Terminal Aerodrome Forecast
Issued by NWS

Home | Current Version | Previous Version | Text Only | Print | Product List | Glossary On
Versions: 1 2 3 4 5 6 7 8 9 10 11 12 13 14 15 16 17 18 19 20 21 22 23 24 25 26 27 28
000
FTUS44 KEWX 311100
TAFSSF
TAF
KSSF 311120Z 3112/0112 06009KT P6SM OVC009
     FM311900 13008KT 4SM -RA BR OVC007
     FM010300 15011KT 2SM BR OVC004
     FM010900 16003KT 3/4SM BR OVC003=

USA.gov is the U.S. government's official web portal to all federal, state and local government web resources and services.